createdAt,value
2024-01-11T00:01:13.912Z,6.97
2024-01-11T00:03:44.009Z,7.01
2024-01-11T00:06:08.070Z,7.05
2024-01-11T00:08:38.684Z,7.06
2024-01-11T00:11:09.497Z,7.08
2024-01-11T00:13:40.032Z,7.08
2024-01-11T00:16:13.314Z,7.08
2024-01-11T00:18:43.637Z,7.09
2024-01-11T00:22:10.983Z,7.10
2024-01-11T00:24:07.249Z,7.12
2024-01-11T00:26:47.357Z,7.12
2024-01-11T00:29:13.147Z,7.13
2024-01-11T00:31:43.582Z,7.12
2024-01-11T00:34:13.927Z,7.11
2024-01-11T00:36:43.833Z,7.08
2024-01-11T00:39:06.399Z,7.03
2024-01-11T00:41:30.000Z,6.97
2024-01-11T00:44:00.670Z,6.90
2024-01-11T00:46:30.559Z,6.86
2024-01-11T00:48:56.486Z,6.91
2024-01-11T00:51:20.560Z,7.01
2024-01-11T00:53:43.505Z,7.09
2024-01-11T00:56:09.114Z,7.14
2024-01-11T00:58:38.861Z,7.16
2024-01-11T01:01:14.317Z,7.19
2024-01-11T01:03:37.147Z,7.23
2024-01-11T01:06:05.574Z,7.26
2024-01-11T01:08:56.172Z,7.29
2024-01-11T01:11:27.685Z,7.33
2024-01-11T01:13:58.055Z,7.37
2024-01-11T01:16:28.150Z,7.44
2024-01-11T01:18:58.795Z,7.49
2024-01-11T01:21:32.911Z,7.54
2024-01-11T01:24:02.980Z,7.60
2024-01-11T01:26:43.840Z,7.66
2024-01-11T01:29:22.971Z,7.71
2024-01-11T01:31:53.563Z,7.72
2024-01-11T01:34:30.566Z,7.74
2024-01-11T01:37:03.318Z,7.74
2024-01-11T01:39:32.248Z,7.73
2024-01-11T01:42:06.181Z,7.69
2024-01-11T01:45:01.498Z,7.70
2024-01-11T01:47:35.950Z,7.67
2024-01-11T01:50:10.619Z,7.60
2024-01-11T01:52:33.498Z,7.54
2024-01-11T01:55:04.532Z,7.49
2024-01-11T01:57:36.688Z,7.44
2024-01-11T01:59:57.315Z,7.43
2024-01-11T02:02:22.939Z,7.45
2024-01-11T02:04:54.279Z,7.43
2024-01-11T02:07:32.080Z,7.40
2024-01-11T02:10:21.982Z,7.39
2024-01-11T02:13:11.166Z,7.42
2024-01-11T02:15:32.301Z,7.43
2024-01-11T02:18:02.561Z,7.38
2024-01-11T02:20:48.934Z,7.38
2024-01-11T02:23:22.950Z,7.36
2024-01-11T02:25:46.108Z,7.34
2024-01-11T02:28:16.145Z,7.31
2024-01-11T02:31:54.989Z,7.25
2024-01-11T02:33:32.853Z,7.17
2024-01-11T02:36:03.520Z,7.07
2024-01-11T02:38:26.417Z,7.01
2024-01-11T02:40:57.474Z,6.94
2024-01-11T02:43:16.416Z,6.89
2024-01-11T02:45:46.845Z,6.87
2024-01-11T02:48:17.157Z,6.88
2024-01-11T02:51:15.730Z,6.86
2024-01-11T02:53:39.605Z,6.85
2024-01-11T02:56:10.260Z,6.83
2024-01-11T02:58:40.591Z,6.82
2024-01-11T03:01:11.104Z,6.82
2024-01-11T03:03:41.951Z,6.80
2024-01-11T03:06:12.361Z,6.84
2024-01-11T03:08:42.982Z,6.71
2024-01-11T03:11:13.533Z,6.54
2024-01-11T03:13:44.404Z,6.39
2024-01-11T03:16:05.620Z,6.35
2024-01-11T03:18:36.413Z,6.34
2024-01-11T03:20:59.810Z,6.32
2024-01-11T03:23:30.805Z,6.31
2024-01-11T03:26:02.526Z,6.32
2024-01-11T03:28:26.308Z,6.31
2024-01-11T03:30:57.883Z,6.31
2024-01-11T03:33:28.247Z,6.29
2024-01-11T03:35:59.103Z,6.28
2024-01-11T03:38:29.766Z,6.27
2024-01-11T03:41:00.439Z,6.26
2024-01-11T03:43:30.770Z,6.24
2024-01-11T03:46:02.414Z,6.25
2024-01-11T03:48:28.980Z,6.24
2024-01-11T03:50:52.132Z,6.25
2024-01-11T03:53:22.766Z,6.27
2024-01-11T03:55:42.535Z,6.27
2024-01-11T03:58:49.079Z,6.28
2024-01-11T04:00:52.862Z,6.28
2024-01-11T04:03:23.391Z,6.27
2024-01-11T04:05:54.349Z,6.24
2024-01-11T04:08:25.328Z,6.21
2024-01-11T04:10:56.701Z,6.21
2024-01-11T04:13:27.004Z,6.20
2024-01-11T04:15:47.495Z,6.23
2024-01-11T04:18:17.992Z,6.28
2024-01-11T04:20:48.957Z,6.35
2024-01-11T04:23:22.865Z,6.40
2024-01-11T04:25:54.365Z,6.43
2024-01-11T04:28:24.956Z,6.46
2024-01-11T04:30:55.601Z,6.52
2024-01-11T04:33:28.970Z,6.62
2024-01-11T04:35:58.214Z,6.64
2024-01-11T04:38:28.389Z,6.67
2024-01-11T04:40:59.408Z,6.69
2024-01-11T04:43:29.835Z,6.71
2024-01-11T04:46:00.844Z,6.73
2024-01-11T04:48:31.152Z,6.74
2024-01-11T04:51:01.861Z,6.74
2024-01-11T04:53:32.044Z,6.73
2024-01-11T04:56:02.544Z,6.70
2024-01-11T04:58:32.923Z,6.67
2024-01-11T05:01:03.569Z,6.64
2024-01-11T05:03:22.616Z,6.60
2024-01-11T05:05:52.980Z,6.57
2024-01-11T05:08:26.446Z,6.54
2024-01-11T05:10:56.767Z,6.51
2024-01-11T05:13:27.843Z,6.47
2024-01-11T05:15:59.234Z,6.44
2024-01-11T05:18:33.041Z,6.42
2024-01-11T05:21:01.845Z,6.41
2024-01-11T05:23:32.313Z,6.40
2024-01-11T05:26:12.835Z,6.38
2024-01-11T05:28:49.823Z,6.35
2024-01-11T05:31:21.237Z,6.34
2024-01-11T05:33:44.549Z,6.32
2024-01-11T05:36:15.496Z,6.31
2024-01-11T05:38:34.519Z,6.29
2024-01-11T05:41:05.546Z,6.27
2024-01-11T05:43:50.634Z,6.23
2024-01-11T05:46:22.851Z,6.22
2024-01-11T05:48:56.197Z,6.19
2024-01-11T05:51:33.333Z,6.15
2024-01-11T05:53:56.888Z,6.12
2024-01-11T05:56:35.117Z,6.09
2024-01-11T05:58:54.767Z,6.07
2024-01-11T06:01:48.195Z,6.05
2024-01-11T06:04:48.375Z,6.05
2024-01-11T06:07:23.247Z,6.06
2024-01-11T06:09:48.890Z,6.24
2024-01-11T06:12:09.073Z,6.49
2024-01-11T06:14:40.530Z,6.80
2024-01-11T06:17:12.901Z,6.90
2024-01-11T06:19:43.997Z,6.83
2024-01-11T06:22:14.660Z,6.84
2024-01-11T06:24:38.787Z,6.98
2024-01-11T06:27:10.740Z,7.14
2024-01-11T06:29:41.663Z,7.31
2024-01-11T06:32:12.872Z,7.43
2024-01-11T06:34:35.866Z,7.50
2024-01-11T06:37:16.232Z,7.48
2024-01-11T06:39:47.021Z,7.38
2024-01-11T06:42:18.563Z,7.31
2024-01-11T06:44:41.101Z,7.27
2024-01-11T06:47:11.526Z,7.25
2024-01-11T06:49:47.473Z,7.24
2024-01-11T06:52:17.785Z,7.23
2024-01-11T06:54:48.097Z,7.23
2024-01-11T06:57:18.433Z,7.26
2024-01-11T06:59:49.305Z,7.29
2024-01-11T07:02:19.909Z,7.33
2024-01-11T07:04:51.609Z,7.36
2024-01-11T07:07:22.071Z,7.38
2024-01-11T07:10:02.975Z,7.46
2024-01-11T07:12:36.169Z,7.53
2024-01-11T07:15:09.824Z,7.53
2024-01-11T07:17:29.649Z,7.52
2024-01-11T07:19:59.799Z,7.52
2024-01-11T07:22:43.644Z,7.52
2024-01-11T07:25:16.906Z,7.53
2024-01-11T07:27:48.063Z,7.54
2024-01-11T07:30:16.089Z,7.56
2024-01-11T07:32:54.592Z,7.60
2024-01-11T07:35:25.116Z,7.64
2024-01-11T07:37:46.794Z,7.66
2024-01-11T07:40:44.506Z,7.69
2024-01-11T07:43:15.594Z,7.69
2024-01-11T07:45:35.579Z,7.67
2024-01-11T07:48:09.149Z,7.70
2024-01-11T07:50:42.723Z,7.78
2024-01-11T07:53:02.792Z,7.77
2024-01-11T07:55:33.365Z,7.73
2024-01-11T07:57:56.868Z,7.69
2024-01-11T08:00:27.651Z,7.67
2024-01-11T08:03:08.250Z,7.64
2024-01-11T08:05:42.364Z,7.62
2024-01-11T08:08:50.660Z,7.62
2024-01-11T08:11:55.943Z,7.66
2024-01-11T08:14:28.742Z,7.68
2024-01-11T08:17:04.886Z,7.66
2024-01-11T08:19:29.110Z,7.61
2024-01-11T08:21:48.468Z,7.62
2024-01-11T08:24:19.684Z,7.61
2024-01-11T08:26:50.327Z,7.58
2024-01-11T08:29:21.510Z,7.52
2024-01-11T08:31:48.493Z,7.50
2024-01-11T08:34:19.150Z,7.49
2024-01-11T08:36:52.523Z,7.50
2024-01-11T08:39:23.389Z,7.51
2024-01-11T08:41:42.862Z,7.52
2024-01-11T08:44:07.134Z,7.54
2024-01-11T08:46:37.604Z,7.56
2024-01-11T08:49:08.473Z,7.58
2024-01-11T08:51:38.754Z,7.59
2024-01-11T08:55:50.150Z,7.59
2024-01-11T08:57:06.983Z,7.63
2024-01-11T08:59:38.235Z,7.66
2024-01-11T09:02:10.224Z,7.70
2024-01-11T09:04:39.514Z,7.70
2024-01-11T09:07:08.738Z,7.57
2024-01-11T09:09:53.968Z,7.48
2024-01-11T09:12:21.852Z,7.48
2024-01-11T09:14:52.062Z,7.43
2024-01-11T09:17:23.323Z,7.43
2024-01-11T09:19:53.853Z,7.47
2024-01-11T09:22:19.242Z,7.49
2024-01-11T09:24:42.237Z,7.52
2024-01-11T09:27:12.433Z,7.58
2024-01-11T09:29:49.564Z,7.57
2024-01-11T09:32:20.493Z,7.43
2024-01-11T09:34:51.386Z,7.36
2024-01-11T09:37:21.010Z,7.31
2024-01-11T09:39:45.037Z,7.30
2024-01-11T09:43:18.230Z,7.31
2024-01-11T09:45:02.188Z,7.32
2024-01-11T09:47:33.576Z,7.36
2024-01-11T09:50:05.787Z,7.43
2024-01-11T09:52:40.098Z,7.51
2024-01-11T09:55:05.705Z,7.58
2024-01-11T09:57:40.365Z,7.63
2024-01-11T10:00:12.692Z,7.72
2024-01-11T10:02:44.070Z,7.79
2024-01-11T10:05:09.275Z,7.81
2024-01-11T10:07:39.263Z,7.73
2024-01-11T10:10:11.454Z,7.64
2024-01-11T10:12:34.684Z,7.51
2024-01-11T10:15:18.441Z,7.41
2024-01-11T10:17:37.805Z,7.38
2024-01-11T10:20:01.836Z,7.36
2024-01-11T10:22:37.637Z,7.24
2024-01-11T10:25:14.918Z,7.20
2024-01-11T10:27:47.191Z,7.18
2024-01-11T10:30:21.790Z,7.13
2024-01-11T10:33:26.372Z,7.03
2024-01-11T10:35:37.543Z,7.02
2024-01-11T10:37:48.163Z,7.03
2024-01-11T10:39:59.704Z,7.06
2024-01-11T10:42:12.013Z,7.09
2024-01-11T10:44:24.394Z,7.13
2024-01-11T10:46:37.816Z,7.19
2024-01-11T10:48:50.638Z,7.16
2024-01-11T10:51:05.070Z,7.18
2024-01-11T10:53:30.762Z,7.18
2024-01-11T10:55:42.707Z,7.13
2024-01-11T10:57:54.028Z,7.11
2024-01-11T11:00:06.639Z,7.10
2024-01-11T11:02:17.348Z,7.09
2024-01-11T11:04:28.127Z,7.03
2024-01-11T11:06:40.445Z,7.01
2024-01-11T11:08:50.825Z,7.00
2024-01-11T11:11:03.653Z,6.98
2024-01-11T11:13:15.893Z,6.99
2024-01-11T11:15:27.404Z,7.00
2024-01-11T11:17:38.277Z,7.02
2024-01-11T11:19:49.366Z,7.05
2024-01-11T11:21:59.561Z,7.08
2024-01-11T11:24:10.687Z,7.05
2024-01-11T11:26:21.496Z,7.03
2024-01-11T11:28:31.934Z,6.99
2024-01-11T11:30:45.582Z,6.97
2024-01-11T11:32:56.003Z,6.95
2024-01-11T11:35:06.379Z,6.96
2024-01-11T11:37:25.565Z,6.98
2024-01-11T11:39:36.963Z,6.78
2024-01-11T11:41:47.374Z,6.61
2024-01-11T11:43:57.749Z,6.52
2024-01-11T11:46:09.459Z,6.38
2024-01-11T11:48:58.207Z,6.34
2024-01-11T11:51:12.283Z,6.29
2024-01-11T11:53:23.726Z,6.29
2024-01-11T11:55:35.461Z,6.32
2024-01-11T11:57:48.658Z,6.34
2024-01-11T12:00:00.676Z,6.42
2024-01-11T12:02:18.435Z,6.47
2024-01-11T12:04:29.738Z,6.55
2024-01-11T12:06:40.096Z,6.64
2024-01-11T12:08:51.764Z,6.67
2024-01-11T12:11:03.560Z,6.71
2024-01-11T12:13:13.615Z,6.77
2024-01-11T12:15:23.644Z,6.82
2024-01-11T12:17:34.216Z,6.88
2024-01-11T12:19:44.615Z,6.92
2024-01-11T12:21:55.182Z,6.94
2024-01-11T12:24:05.601Z,6.95
2024-01-11T12:26:16.916Z,7.01
2024-01-11T12:28:27.433Z,7.04
2024-01-11T12:30:38.005Z,7.08
2024-01-11T12:32:48.536Z,7.11
2024-01-11T12:34:59.728Z,7.13
2024-01-11T12:37:10.733Z,7.14
2024-01-11T12:39:24.092Z,7.18
2024-01-11T12:41:34.179Z,7.19
2024-01-11T12:43:44.463Z,7.19
2024-01-11T12:45:55.695Z,7.19
2024-01-11T12:48:06.986Z,7.19
2024-01-11T12:50:17.526Z,7.20
2024-01-11T12:52:29.014Z,7.21
2024-01-11T12:54:40.060Z,7.20
2024-01-11T12:56:49.869Z,7.21
2024-01-11T12:59:12.680Z,7.20
2024-01-11T13:01:22.842Z,7.18
2024-01-11T13:03:33.385Z,7.18
2024-01-11T13:05:43.967Z,7.19
2024-01-11T13:07:54.138Z,7.17
2024-01-11T13:10:05.582Z,7.18
2024-01-11T13:12:15.596Z,7.16
2024-01-11T13:14:26.114Z,7.15
2024-01-11T13:16:36.237Z,7.14
2024-01-11T13:18:46.436Z,7.15
2024-01-11T13:20:56.851Z,7.03
2024-01-11T13:23:22.101Z,6.88
2024-01-11T13:25:32.544Z,6.76
2024-01-11T13:27:42.707Z,6.68
2024-01-11T13:29:52.779Z,6.62
2024-01-11T13:32:05.464Z,6.57
2024-01-11T13:34:15.830Z,6.55
2024-01-11T13:36:25.526Z,6.57
2024-01-11T13:38:36.373Z,6.60
2024-01-11T13:40:46.451Z,6.67
2024-01-11T13:42:57.132Z,6.72
2024-01-11T13:45:10.390Z,6.78
2024-01-11T13:47:20.958Z,6.83
2024-01-11T13:49:32.334Z,6.88
2024-01-11T13:52:06.706Z,6.98
2024-01-11T13:54:19.859Z,7.05
2024-01-11T13:56:34.046Z,7.06
2024-01-11T13:58:47.596Z,7.01
2024-01-11T14:01:00.842Z,6.95
2024-01-11T14:03:14.637Z,6.90
2024-01-11T14:05:28.201Z,6.88
2024-01-11T14:07:41.587Z,6.88
2024-01-11T14:09:55.373Z,6.91
2024-01-11T14:12:08.806Z,6.91
2024-01-11T14:14:22.881Z,6.93
2024-01-11T14:16:35.718Z,6.91
2024-01-11T14:18:48.855Z,6.91
2024-01-11T14:21:02.654Z,6.93
2024-01-11T14:23:15.283Z,6.92
2024-01-11T14:25:26.796Z,6.92
2024-01-11T14:27:40.211Z,6.91
2024-01-11T14:29:53.592Z,6.91
2024-01-11T14:32:06.595Z,6.91
2024-01-11T14:34:19.402Z,6.95
2024-01-11T14:36:32.578Z,6.99
2024-01-11T14:38:45.908Z,7.03
2024-01-11T14:40:59.795Z,6.96
2024-01-11T14:43:13.660Z,6.79
2024-01-11T14:45:26.961Z,6.66
2024-01-11T14:47:40.361Z,6.60
2024-01-11T14:49:53.358Z,6.54
2024-01-11T14:52:05.945Z,6.50
2024-01-11T14:54:19.142Z,6.50
2024-01-11T14:56:32.313Z,6.54
2024-01-11T14:58:45.642Z,6.60
2024-01-11T15:00:59.085Z,6.68
2024-01-11T15:03:12.278Z,6.73
2024-01-11T15:05:25.306Z,6.79
2024-01-11T15:07:38.013Z,6.83
2024-01-11T15:09:51.669Z,6.88
2024-01-11T15:12:04.518Z,6.90
2024-01-11T15:14:17.852Z,6.90
2024-01-11T15:16:30.933Z,6.91
2024-01-11T15:18:43.914Z,6.92
2024-01-11T15:20:56.994Z,6.95
2024-01-11T15:23:10.214Z,6.96
2024-01-11T15:25:22.973Z,6.97
2024-01-11T15:27:36.086Z,6.98
2024-01-11T15:29:49.752Z,6.98
2024-01-11T15:32:02.888Z,6.98
2024-01-11T15:34:16.658Z,6.98
2024-01-11T15:36:29.905Z,6.98
2024-01-11T15:38:43.020Z,6.98
2024-01-11T15:40:56.070Z,6.99
2024-01-11T15:43:09.089Z,7.00
2024-01-11T15:45:22.509Z,6.99
2024-01-11T15:47:35.537Z,6.99
2024-01-11T15:49:48.584Z,7.01
2024-01-11T15:52:05.415Z,7.02
2024-01-11T15:54:18.681Z,7.03
2024-01-11T15:56:31.574Z,7.06
2024-01-11T15:58:45.181Z,7.06
2024-01-11T16:00:58.592Z,7.07
2024-01-11T16:03:11.515Z,7.11
2024-01-11T16:05:24.795Z,7.13
2024-01-11T16:07:37.776Z,7.15
2024-01-11T16:09:50.638Z,7.18
2024-01-11T16:12:06.553Z,7.18
2024-01-11T16:14:20.365Z,7.19
2024-01-11T16:16:36.273Z,7.20
2024-01-11T16:18:49.616Z,7.23
2024-01-11T16:21:02.622Z,7.23
2024-01-11T16:23:15.206Z,7.23
2024-01-11T16:25:25.626Z,7.25
2024-01-11T16:27:38.935Z,7.27
2024-01-11T16:29:53.415Z,7.28
2024-01-11T16:32:07.460Z,7.28
2024-01-11T16:34:20.677Z,7.29
2024-01-11T16:36:33.948Z,7.30
2024-01-11T16:38:47.506Z,7.30
2024-01-11T16:41:01.366Z,7.33
2024-01-11T16:43:14.511Z,7.36
2024-01-11T16:45:27.399Z,7.38
2024-01-11T16:47:41.235Z,7.41
2024-01-11T16:49:54.414Z,7.44
2024-01-11T16:52:08.470Z,7.45
2024-01-11T16:54:21.867Z,7.49
2024-01-11T16:56:34.894Z,7.53
2024-01-11T16:58:48.278Z,7.53
2024-01-11T17:01:01.533Z,7.48
2024-01-11T17:03:15.812Z,7.47
2024-01-11T17:05:29.120Z,7.47
2024-01-11T17:07:42.386Z,7.47
2024-01-11T17:09:55.608Z,7.46
2024-01-11T17:12:09.319Z,7.46
2024-01-11T17:14:22.751Z,7.38
2024-01-11T17:16:37.069Z,7.31
2024-01-11T17:18:50.894Z,7.25
2024-01-11T17:21:04.246Z,7.19
2024-01-11T17:23:19.805Z,7.16
2024-01-11T17:25:33.170Z,7.18
2024-01-11T17:27:45.808Z,7.20
2024-01-11T17:29:58.522Z,7.22
2024-01-11T17:32:12.014Z,7.25
2024-01-11T17:34:26.153Z,7.29
2024-01-11T17:36:39.084Z,7.28
2024-01-11T17:38:53.600Z,7.24
2024-01-11T17:41:06.608Z,7.21
2024-01-11T17:43:21.396Z,7.17
2024-01-11T17:45:34.863Z,7.15
2024-01-11T17:47:48.929Z,7.16
2024-01-11T17:50:01.858Z,7.19
2024-01-11T17:52:15.366Z,7.21
2024-01-11T17:54:29.461Z,7.27
2024-01-11T17:56:45.858Z,7.33
2024-01-11T17:59:02.363Z,7.38
2024-01-11T18:01:22.816Z,7.40
2024-01-11T18:03:35.902Z,7.43
2024-01-11T18:05:49.912Z,7.36
2024-01-11T18:08:03.910Z,7.18
2024-01-11T18:10:20.062Z,7.08
2024-01-11T18:12:33.380Z,6.90
2024-01-11T18:14:46.511Z,6.77
2024-01-11T18:16:59.779Z,6.64
2024-01-11T18:19:15.775Z,6.55
2024-01-11T18:21:29.893Z,6.49
2024-01-11T18:23:44.728Z,6.47
2024-01-11T18:25:58.596Z,6.53
2024-01-11T18:28:12.262Z,6.62
2024-01-11T18:30:25.933Z,6.69
2024-01-11T18:32:40.036Z,6.73
2024-01-11T18:34:53.346Z,6.75
2024-01-11T18:37:06.808Z,6.73
2024-01-11T18:39:20.088Z,6.69
2024-01-11T18:41:34.015Z,6.67
2024-01-11T18:43:47.008Z,6.69
2024-01-11T18:45:59.818Z,6.75
2024-01-11T18:48:14.514Z,6.80
2024-01-11T18:50:27.839Z,6.82
2024-01-11T18:52:40.923Z,6.82
2024-01-11T18:55:01.242Z,6.80
2024-01-11T18:57:22.217Z,6.85
2024-01-11T18:59:35.270Z,6.91
2024-01-11T19:01:52.177Z,6.97
2024-01-11T19:04:05.375Z,7.02
2024-01-11T19:06:18.458Z,7.05
2024-01-11T19:08:31.704Z,7.07
2024-01-11T19:10:44.596Z,7.08
2024-01-11T19:12:57.960Z,7.12
2024-01-11T19:15:12.419Z,6.97
2024-01-11T19:17:25.445Z,6.62
2024-01-11T19:19:39.059Z,6.42
2024-01-11T19:21:51.965Z,6.41
2024-01-11T19:24:05.524Z,6.44
2024-01-11T19:26:18.714Z,6.47
2024-01-11T19:28:31.698Z,6.52
2024-01-11T19:30:45.274Z,6.61
2024-01-11T19:32:58.158Z,6.69
2024-01-11T19:35:12.504Z,6.80
2024-01-11T19:37:25.535Z,6.85
2024-01-11T19:39:38.951Z,6.95
2024-01-11T19:41:51.934Z,7.05
2024-01-11T19:44:05.298Z,7.14
2024-01-11T19:46:22.967Z,7.21
2024-01-11T19:48:35.998Z,7.28
2024-01-11T19:50:49.687Z,7.34
2024-01-11T19:53:02.604Z,7.40
2024-01-11T19:55:16.501Z,7.46
2024-01-11T19:57:29.437Z,7.53
2024-01-11T19:59:43.087Z,7.57
2024-01-11T20:01:57.862Z,7.60
2024-01-11T20:04:12.643Z,7.65
2024-01-11T20:06:26.633Z,7.69
2024-01-11T20:08:40.059Z,7.76
2024-01-11T20:10:53.389Z,7.80
2024-01-11T20:13:06.690Z,7.80
2024-01-11T20:15:20.470Z,7.80
2024-01-11T20:17:33.917Z,7.86
2024-01-11T20:19:52.898Z,7.88
2024-01-11T20:22:05.811Z,7.92
2024-01-11T20:24:18.644Z,7.95
2024-01-11T20:26:31.497Z,7.99
2024-01-11T20:28:44.552Z,7.99
2024-01-11T20:30:57.575Z,7.94
2024-01-11T20:33:11.237Z,7.87
2024-01-11T20:35:24.567Z,7.82
2024-01-11T20:37:37.373Z,7.82
2024-01-11T20:39:50.343Z,7.82
2024-01-11T20:42:03.481Z,7.83
2024-01-11T20:44:17.769Z,7.87
2024-01-11T20:46:31.381Z,7.92
2024-01-11T20:48:47.711Z,7.98
2024-01-11T20:51:01.788Z,8.03
2024-01-11T20:53:14.479Z,7.93
2024-01-11T20:55:27.753Z,7.85
2024-01-11T20:57:40.540Z,7.76
2024-01-11T20:59:53.404Z,7.75
2024-01-11T21:02:06.356Z,7.75
2024-01-11T21:04:20.424Z,7.77
2024-01-11T21:06:34.106Z,7.81
2024-01-11T21:08:47.309Z,7.83
2024-01-11T21:11:00.323Z,7.87
2024-01-11T21:13:14.808Z,7.86
2024-01-11T21:15:29.496Z,7.73
2024-01-11T21:17:43.255Z,7.62
2024-01-11T21:19:56.177Z,7.57
2024-01-11T21:22:09.131Z,7.56
2024-01-11T21:24:22.614Z,7.59
2024-01-11T21:26:37.129Z,7.63
2024-01-11T21:28:52.397Z,7.66
2024-01-11T21:31:05.369Z,7.74
2024-01-11T21:33:18.773Z,7.79
2024-01-11T21:35:31.833Z,7.85
2024-01-11T21:37:47.150Z,7.91
2024-01-11T21:40:01.423Z,7.93
2024-01-11T21:42:14.419Z,7.80
2024-01-11T21:44:27.790Z,7.73
2024-01-11T21:46:41.379Z,7.60
2024-01-11T21:48:54.508Z,7.43
2024-01-11T21:51:07.931Z,7.30
2024-01-11T21:53:20.977Z,7.20
2024-01-11T21:55:34.696Z,7.15
2024-01-11T21:57:47.702Z,7.17
2024-01-11T22:00:01.170Z,7.23
2024-01-11T22:02:14.189Z,7.33
2024-01-11T22:04:27.388Z,7.36
2024-01-11T22:06:40.434Z,7.30
2024-01-11T22:08:53.607Z,7.19
2024-01-11T22:11:07.202Z,7.09
2024-01-11T22:13:21.135Z,7.02
2024-01-11T22:15:34.672Z,6.97
2024-01-11T22:17:47.834Z,6.93
2024-01-11T22:20:01.575Z,6.94
2024-01-11T22:22:14.682Z,6.99
2024-01-11T22:24:27.567Z,7.09
2024-01-11T22:26:41.870Z,7.18
2024-01-11T22:28:54.855Z,7.28
2024-01-11T22:31:08.165Z,7.35
2024-01-11T22:33:21.135Z,7.46
2024-01-11T22:35:34.043Z,7.51
2024-01-11T22:37:47.179Z,7.52
2024-01-11T22:40:00.398Z,7.37
2024-01-11T22:42:13.664Z,7.28
2024-01-11T22:44:26.895Z,7.18
2024-01-11T22:46:40.231Z,7.18
2024-01-11T22:48:54.018Z,7.25
2024-01-11T22:51:07.124Z,7.27
2024-01-11T22:53:20.500Z,7.28
2024-01-11T22:55:33.951Z,7.25
2024-01-11T22:57:46.763Z,7.24
2024-01-11T23:00:00.032Z,7.27
2024-01-11T23:02:13.482Z,7.32
2024-01-11T23:04:26.649Z,7.36
2024-01-11T23:06:39.886Z,7.45
2024-01-11T23:08:53.210Z,7.46
2024-01-11T23:11:06.619Z,7.43
2024-01-11T23:13:19.990Z,7.35
2024-01-11T23:15:32.948Z,7.25
2024-01-11T23:17:46.905Z,7.22
2024-01-11T23:20:00.112Z,7.20
2024-01-11T23:22:13.739Z,7.20
2024-01-11T23:24:26.722Z,7.20
2024-01-11T23:26:40.022Z,7.23
2024-01-11T23:28:53.440Z,7.25
2024-01-11T23:31:06.583Z,7.32
2024-01-11T23:33:20.288Z,7.34
2024-01-11T23:35:33.740Z,7.35
2024-01-11T23:37:46.593Z,7.35
2024-01-11T23:39:59.525Z,7.36
2024-01-11T23:42:14.209Z,7.34
2024-01-11T23:44:27.443Z,7.31
2024-01-11T23:46:40.405Z,7.25
2024-01-11T23:48:54.051Z,7.09
2024-01-11T23:51:07.783Z,6.90
2024-01-11T23:53:21.595Z,6.73
2024-01-11T23:55:34.642Z,6.61
2024-01-11T23:57:49.773Z,6.59
